sensor_id;sensor_type;location;lat;lon;timestamp;pressure;altitude;pressure_sealevel;temperature;humidity
52745;BME280;38637;49.984;20.426;2022-07-29T00:02:00;99664.72;;;18.25;70.61
52745;BME280;38637;49.984;20.426;2022-07-29T00:04:25;99668.78;;;18.27;70.48
52745;BME280;38637;49.984;20.426;2022-07-29T00:06:51;99656.41;;;18.25;70.42
52745;BME280;38637;49.984;20.426;2022-07-29T00:09:16;99659.28;;;18.20;70.55
52745;BME280;38637;49.984;20.426;2022-07-29T00:11:41;99657.94;;;18.17;70.47
52745;BME280;38637;49.984;20.426;2022-07-29T00:14:07;99658.53;;;18.14;70.77
52745;BME280;38637;49.984;20.426;2022-07-29T00:16:32;99661.38;;;18.09;71.06
52745;BME280;38637;49.984;20.426;2022-07-29T00:18:57;99654.22;;;18.08;71.01
52745;BME280;38637;49.984;20.426;2022-07-29T00:21:22;99658.41;;;18.05;71.18
52745;BME280;38637;49.984;20.426;2022-07-29T00:23:48;99658.75;;;18.04;71.36
52745;BME280;38637;49.984;20.426;2022-07-29T00:26:13;99666.22;;;18.03;71.35
52745;BME280;38637;49.984;20.426;2022-07-29T00:28:38;99662.94;;;18.01;71.42
52745;BME280;38637;49.984;20.426;2022-07-29T00:31:03;99668.13;;;18.03;71.51
52745;BME280;38637;49.984;20.426;2022-07-29T00:33:29;99663.13;;;18.05;71.36
52745;BME280;38637;49.984;20.426;2022-07-29T00:35:54;99657.31;;;18.06;71.19
52745;BME280;38637;49.984;20.426;2022-07-29T00:38:19;99658.13;;;18.07;71.35
52745;BME280;38637;49.984;20.426;2022-07-29T00:40:45;99669.19;;;18.07;71.15
52745;BME280;38637;49.984;20.426;2022-07-29T00:43:11;99663.06;;;18.10;71.07
52745;BME280;38637;49.984;20.426;2022-07-29T00:45:36;99661.91;;;18.11;70.81
52745;BME280;38637;49.984;20.426;2022-07-29T00:48:02;99662.00;;;18.06;71.11
52745;BME280;38637;49.984;20.426;2022-07-29T00:50:28;99662.41;;;17.99;71.49
52745;BME280;38637;49.984;20.426;2022-07-29T00:52:53;99662.09;;;18.01;71.29
52745;BME280;38637;49.984;20.426;2022-07-29T00:55:19;99660.78;;;17.98;71.37
52745;BME280;38637;49.984;20.426;2022-07-29T00:57:44;99664.97;;;17.96;71.57
52745;BME280;38637;49.984;20.426;2022-07-29T01:00:11;99655.03;;;17.95;71.54
52745;BME280;38637;49.984;20.426;2022-07-29T01:02:37;99663.31;;;17.95;71.61
52745;BME280;38637;49.984;20.426;2022-07-29T01:05:03;99657.19;;;17.98;71.36
52745;BME280;38637;49.984;20.426;2022-07-29T01:07:29;99651.34;;;17.99;70.78
52745;BME280;38637;49.984;20.426;2022-07-29T01:09:55;99651.47;;;17.94;70.98
52745;BME280;38637;49.984;20.426;2022-07-29T01:12:25;99655.44;;;17.88;71.14
52745;BME280;38637;49.984;20.426;2022-07-29T01:14:51;99652.16;;;17.86;71.19
52745;BME280;38637;49.984;20.426;2022-07-29T01:30:24;99640.50;;;17.89;71.31
52745;BME280;38637;49.984;20.426;2022-07-29T01:32:51;99644.06;;;17.89;71.59
52745;BME280;38637;49.984;20.426;2022-07-29T01:35:21;99638.75;;;17.93;71.06
52745;BME280;38637;49.984;20.426;2022-07-29T01:37:57;99638.75;;;17.93;70.84
52745;BME280;38637;49.984;20.426;2022-07-29T01:40:34;99643.84;;;17.86;71.25
52745;BME280;38637;49.984;20.426;2022-07-29T01:43:03;99637.31;;;17.82;71.78
52745;BME280;38637;49.984;20.426;2022-07-29T01:48:03;99645.88;;;17.80;71.61
52745;BME280;38637;49.984;20.426;2022-07-29T01:50:33;99633.25;;;17.74;71.67
52745;BME280;38637;49.984;20.426;2022-07-29T01:53:00;99636.41;;;17.67;71.51
52745;BME280;38637;49.984;20.426;2022-07-29T01:55:29;99638.34;;;17.67;71.24
52745;BME280;38637;49.984;20.426;2022-07-29T01:57:56;99640.91;;;17.63;71.31
52745;BME280;38637;49.984;20.426;2022-07-29T02:00:22;99641.13;;;17.67;71.62
52745;BME280;38637;49.984;20.426;2022-07-29T02:02:48;99648.34;;;17.63;71.65
52745;BME280;38637;49.984;20.426;2022-07-29T02:05:15;99642.00;;;17.62;71.55
52745;BME280;38637;49.984;20.426;2022-07-29T02:07:42;99638.97;;;17.64;71.36
52745;BME280;38637;49.984;20.426;2022-07-29T02:10:08;99639.78;;;17.64;71.24
52745;BME280;38637;49.984;20.426;2022-07-29T02:12:34;99637.63;;;17.61;71.20
52745;BME280;38637;49.984;20.426;2022-07-29T02:15:01;99641.50;;;17.60;71.40
52745;BME280;38637;49.984;20.426;2022-07-29T02:17:27;99641.81;;;17.59;71.75
52745;BME280;38637;49.984;20.426;2022-07-29T02:19:56;99638.50;;;17.57;71.80
52745;BME280;38637;49.984;20.426;2022-07-29T02:22:22;99644.13;;;17.52;71.99
52745;BME280;38637;49.984;20.426;2022-07-29T02:24:49;99637.47;;;17.53;71.74
52745;BME280;38637;49.984;20.426;2022-07-29T02:27:16;99641.66;;;17.50;71.84
52745;BME280;38637;49.984;20.426;2022-07-29T02:29:42;99638.41;;;17.48;72.17
52745;BME280;38637;49.984;20.426;2022-07-29T02:32:09;99629.59;;;17.46;72.25
52745;BME280;38637;49.984;20.426;2022-07-29T02:34:36;99621.91;;;17.43;71.99
52745;BME280;38637;49.984;20.426;2022-07-29T02:37:03;99620.28;;;17.42;71.68
52745;BME280;38637;49.984;20.426;2022-07-29T02:39:29;99620.34;;;17.37;71.91
52745;BME280;38637;49.984;20.426;2022-07-29T02:41:56;99623.09;;;17.37;71.87
52745;BME280;38637;49.984;20.426;2022-07-29T02:44:23;99617.59;;;17.37;72.06
52745;BME280;38637;49.984;20.426;2022-07-29T02:46:58;99619.53;;;17.36;72.14
52745;BME280;38637;49.984;20.426;2022-07-29T02:52:16;99620.88;;;17.39;72.22
52745;BME280;38637;49.984;20.426;2022-07-29T02:54:56;99623.03;;;17.42;72.39
52745;BME280;38637;49.984;20.426;2022-07-29T02:57:44;99612.50;;;17.44;72.08
52745;BME280;38637;49.984;20.426;2022-07-29T03:00:07;99607.78;;;17.44;72.12
52745;BME280;38637;49.984;20.426;2022-07-29T03:02:34;99620.50;;;17.45;71.99
52745;BME280;38637;49.984;20.426;2022-07-29T03:05:00;99613.91;;;17.41;72.08
52745;BME280;38637;49.984;20.426;2022-07-29T03:07:26;99614.75;;;17.42;72.15
52745;BME280;38637;49.984;20.426;2022-07-29T03:09:52;99615.84;;;17.41;72.19
52745;BME280;38637;49.984;20.426;2022-07-29T03:12:18;99611.25;;;17.36;72.30
52745;BME280;38637;49.984;20.426;2022-07-29T03:14:43;99610.50;;;17.31;71.84
52745;BME280;38637;49.984;20.426;2022-07-29T03:17:09;99606.41;;;17.28;71.53
52745;BME280;38637;49.984;20.426;2022-07-29T03:19:34;99609.75;;;17.25;71.79
52745;BME280;38637;49.984;20.426;2022-07-29T03:22:00;99615.28;;;17.25;72.21
52745;BME280;38637;49.984;20.426;2022-07-29T03:24:27;99610.28;;;17.27;71.78
52745;BME280;38637;49.984;20.426;2022-07-29T03:26:54;99607.75;;;17.31;71.96
52745;BME280;38637;49.984;20.426;2022-07-29T03:29:19;99613.81;;;17.33;71.66
52745;BME280;38637;49.984;20.426;2022-07-29T03:31:44;99618.47;;;17.32;71.79
52745;BME280;38637;49.984;20.426;2022-07-29T03:34:09;99618.78;;;17.31;71.58
52745;BME280;38637;49.984;20.426;2022-07-29T03:36:35;99626.84;;;17.27;71.67
52745;BME280;38637;49.984;20.426;2022-07-29T03:39:00;99622.16;;;17.28;71.52
52745;BME280;38637;49.984;20.426;2022-07-29T03:41:26;99622.75;;;17.25;71.94
52745;BME280;38637;49.984;20.426;2022-07-29T03:43:51;99618.03;;;17.25;71.96
52745;BME280;38637;49.984;20.426;2022-07-29T03:46:18;99617.44;;;17.28;71.90
52745;BME280;38637;49.984;20.426;2022-07-29T03:48:46;99619.59;;;17.31;71.72
52745;BME280;38637;49.984;20.426;2022-07-29T03:51:13;99616.03;;;17.31;71.63
52745;BME280;38637;49.984;20.426;2022-07-29T03:53:39;99611.94;;;17.28;71.86
52745;BME280;38637;49.984;20.426;2022-07-29T03:56:04;99617.16;;;17.30;71.87
52745;BME280;38637;49.984;20.426;2022-07-29T03:58:30;99611.94;;;17.28;71.85
52745;BME280;38637;49.984;20.426;2022-07-29T04:00:56;99600.81;;;17.33;72.05
52745;BME280;38637;49.984;20.426;2022-07-29T04:03:22;99608.69;;;17.40;71.22
52745;BME280;38637;49.984;20.426;2022-07-29T04:06:00;99608.31;;;17.46;71.55
52745;BME280;38637;49.984;20.426;2022-07-29T04:08:26;99612.34;;;17.54;70.74
52745;BME280;38637;49.984;20.426;2022-07-29T04:10:51;99621.25;;;17.65;70.27
52745;BME280;38637;49.984;20.426;2022-07-29T04:13:17;99618.88;;;17.77;70.42
52745;BME280;38637;49.984;20.426;2022-07-29T04:15:43;99616.66;;;17.93;69.87
52745;BME280;38637;49.984;20.426;2022-07-29T04:18:08;99623.63;;;18.04;68.82
52745;BME280;38637;49.984;20.426;2022-07-29T04:20:33;99612.97;;;18.11;67.93
52745;BME280;38637;49.984;20.426;2022-07-29T04:22:59;99618.50;;;18.11;67.35
52745;BME280;38637;49.984;20.426;2022-07-29T04:25:24;99621.28;;;18.11;67.19
52745;BME280;38637;49.984;20.426;2022-07-29T04:27:49;99618.31;;;18.08;66.74
52745;BME280;38637;49.984;20.426;2022-07-29T04:30:27;99614.00;;;18.02;67.05
52745;BME280;38637;49.984;20.426;2022-07-29T04:32:52;99619.44;;;18.07;67.14
52745;BME280;38637;49.984;20.426;2022-07-29T04:35:20;99615.94;;;18.15;66.96
52745;BME280;38637;49.984;20.426;2022-07-29T04:37:46;99616.06;;;18.24;66.17
52745;BME280;38637;49.984;20.426;2022-07-29T04:40:11;99620.59;;;18.33;65.66
52745;BME280;38637;49.984;20.426;2022-07-29T04:42:37;99618.22;;;18.41;65.29
52745;BME280;38637;49.984;20.426;2022-07-29T04:45:02;99627.03;;;18.43;65.45
52745;BME280;38637;49.984;20.426;2022-07-29T04:47:27;99627.13;;;18.51;65.61
52745;BME280;38637;49.984;20.426;2022-07-29T04:49:52;99638.81;;;18.62;64.90
52745;BME280;38637;49.984;20.426;2022-07-29T04:52:18;99629.78;;;18.70;65.10
52745;BME280;38637;49.984;20.426;2022-07-29T04:54:43;99629.41;;;18.77;65.35
52745;BME280;38637;49.984;20.426;2022-07-29T04:57:08;99623.44;;;18.83;64.95
52745;BME280;38637;49.984;20.426;2022-07-29T04:59:33;99619.31;;;18.95;64.77
52745;BME280;38637;49.984;20.426;2022-07-29T05:01:59;99607.31;;;18.99;64.56
52745;BME280;38637;49.984;20.426;2022-07-29T05:04:24;99614.16;;;19.02;64.63
52745;BME280;38637;49.984;20.426;2022-07-29T05:06:49;99610.44;;;19.06;64.31
52745;BME280;38637;49.984;20.426;2022-07-29T05:09:14;99613.94;;;19.12;64.49
52745;BME280;38637;49.984;20.426;2022-07-29T05:11:40;99605.50;;;19.17;64.41
52745;BME280;38637;49.984;20.426;2022-07-29T05:14:05;99611.13;;;19.26;63.61
52745;BME280;38637;49.984;20.426;2022-07-29T05:16:30;99615.59;;;19.36;63.38
52745;BME280;38637;49.984;20.426;2022-07-29T05:18:55;99609.31;;;19.44;63.17
52745;BME280;38637;49.984;20.426;2022-07-29T05:21:20;99605.41;;;19.45;62.10
52745;BME280;38637;49.984;20.426;2022-07-29T05:23:46;99603.56;;;19.40;61.65
52745;BME280;38637;49.984;20.426;2022-07-29T05:26:11;99604.50;;;19.36;62.00
52745;BME280;38637;49.984;20.426;2022-07-29T05:28:37;99606.28;;;19.32;62.10
52745;BME280;38637;49.984;20.426;2022-07-29T05:31:02;99612.81;;;19.36;62.62
52745;BME280;38637;49.984;20.426;2022-07-29T05:33:28;99602.75;;;19.40;61.91
52745;BME280;38637;49.984;20.426;2022-07-29T05:35:53;99607.81;;;19.38;62.63
52745;BME280;38637;49.984;20.426;2022-07-29T05:38:18;99604.59;;;19.44;62.64
52745;BME280;38637;49.984;20.426;2022-07-29T05:40:43;99595.66;;;19.47;61.92
52745;BME280;38637;49.984;20.426;2022-07-29T05:43:08;99606.78;;;19.56;61.40
52745;BME280;38637;49.984;20.426;2022-07-29T05:45:34;99605.75;;;19.52;61.33
52745;BME280;38637;49.984;20.426;2022-07-29T05:47:59;99596.34;;;19.53;61.39
52745;BME280;38637;49.984;20.426;2022-07-29T05:50:24;99604.28;;;19.68;61.87
52745;BME280;38637;49.984;20.426;2022-07-29T05:52:49;99603.91;;;19.84;61.63
52745;BME280;38637;49.984;20.426;2022-07-29T05:55:15;99603.28;;;19.95;60.65
52745;BME280;38637;49.984;20.426;2022-07-29T05:57:40;99598.41;;;20.01;60.56
52745;BME280;38637;49.984;20.426;2022-07-29T06:00:05;99606.09;;;20.04;60.77
52745;BME280;38637;49.984;20.426;2022-07-29T06:02:31;99599.16;;;20.15;60.63
52745;BME280;38637;49.984;20.426;2022-07-29T06:04:56;99598.53;;;20.27;59.81
52745;BME280;38637;49.984;20.426;2022-07-29T06:07:21;99589.59;;;20.30;59.79
52745;BME280;38637;49.984;20.426;2022-07-29T06:09:46;99603.19;;;20.49;59.54
52745;BME280;38637;49.984;20.426;2022-07-29T06:12:12;99603.25;;;20.58;59.49
52745;BME280;38637;49.984;20.426;2022-07-29T06:14:37;99607.97;;;20.66;58.97
52745;BME280;38637;49.984;20.426;2022-07-29T06:17:03;99597.53;;;20.72;59.22
52745;BME280;38637;49.984;20.426;2022-07-29T06:19:28;99595.25;;;20.74;59.15
52745;BME280;38637;49.984;20.426;2022-07-29T06:21:54;99602.78;;;20.73;58.73
52745;BME280;38637;49.984;20.426;2022-07-29T06:24:19;99593.44;;;20.69;59.32
52745;BME280;38637;49.984;20.426;2022-07-29T06:26:44;99596.25;;;20.78;59.53
52745;BME280;38637;49.984;20.426;2022-07-29T06:29:10;99603.44;;;20.87;59.22
52745;BME280;38637;49.984;20.426;2022-07-29T06:31:35;99610.47;;;20.85;58.50
52745;BME280;38637;49.984;20.426;2022-07-29T06:34:01;99614.72;;;20.82;58.55
52745;BME280;38637;49.984;20.426;2022-07-29T06:36:26;99608.66;;;20.80;58.26
52745;BME280;38637;49.984;20.426;2022-07-29T06:38:51;99608.84;;;20.93;59.30
52745;BME280;38637;49.984;20.426;2022-07-29T06:41:16;99607.41;;;21.04;59.71
52745;BME280;38637;49.984;20.426;2022-07-29T06:43:42;99607.72;;;21.11;59.63
52745;BME280;38637;49.984;20.426;2022-07-29T06:46:09;99610.19;;;21.21;58.74
52745;BME280;38637;49.984;20.426;2022-07-29T06:48:35;99610.50;;;21.28;58.95
52745;BME280;38637;49.984;20.426;2022-07-29T06:51:03;99607.22;;;21.26;57.96
52745;BME280;38637;49.984;20.426;2022-07-29T06:53:29;99614.44;;;21.27;58.33
52745;BME280;38637;49.984;20.426;2022-07-29T06:55:55;99611.16;;;21.17;58.82
52745;BME280;38637;49.984;20.426;2022-07-29T06:58:20;99597.41;;;21.20;59.53
52745;BME280;38637;49.984;20.426;2022-07-29T07:00:46;99609.69;;;21.28;59.16
52745;BME280;38637;49.984;20.426;2022-07-29T07:03:12;99607.22;;;21.35;59.80
52745;BME280;38637;49.984;20.426;2022-07-29T07:05:37;99601.34;;;21.45;59.50
52745;BME280;38637;49.984;20.426;2022-07-29T07:08:03;99601.19;;;21.50;58.94
52745;BME280;38637;49.984;20.426;2022-07-29T07:10:28;99604.94;;;21.54;58.01
52745;BME280;38637;49.984;20.426;2022-07-29T07:12:54;99590.56;;;21.52;58.52
52745;BME280;38637;49.984;20.426;2022-07-29T07:15:19;99596.75;;;21.67;59.47
52745;BME280;38637;49.984;20.426;2022-07-29T07:17:48;99595.59;;;21.76;58.15
52745;BME280;38637;49.984;20.426;2022-07-29T07:20:13;99598.69;;;21.84;58.18
52745;BME280;38637;49.984;20.426;2022-07-29T07:22:39;99598.97;;;21.91;58.08
52745;BME280;38637;49.984;20.426;2022-07-29T07:25:04;99602.56;;;21.91;57.49
52745;BME280;38637;49.984;20.426;2022-07-29T07:27:29;99604.69;;;21.94;58.06
52745;BME280;38637;49.984;20.426;2022-07-29T07:29:55;99597.78;;;22.00;57.34
52745;BME280;38637;49.984;20.426;2022-07-29T07:32:20;99606.13;;;22.00;57.59
52745;BME280;38637;49.984;20.426;2022-07-29T07:34:45;99599.59;;;22.05;56.81
52745;BME280;38637;49.984;20.426;2022-07-29T07:37:10;99604.81;;;22.07;57.69
52745;BME280;38637;49.984;20.426;2022-07-29T07:39:36;99599.22;;;22.15;57.12
52745;BME280;38637;49.984;20.426;2022-07-29T07:42:01;99596.28;;;22.20;56.99
52745;BME280;38637;49.984;20.426;2022-07-29T07:44:26;99602.00;;;22.24;57.30
52745;BME280;38637;49.984;20.426;2022-07-29T07:46:51;99601.81;;;22.29;57.39
52745;BME280;38637;49.984;20.426;2022-07-29T07:49:17;99605.69;;;22.37;57.29
52745;BME280;38637;49.984;20.426;2022-07-29T07:51:42;99606.00;;;22.44;57.04
52745;BME280;38637;49.984;20.426;2022-07-29T07:54:07;99605.66;;;22.45;56.54
52745;BME280;38637;49.984;20.426;2022-07-29T07:56:32;99608.59;;;22.49;56.30
52745;BME280;38637;49.984;20.426;2022-07-29T07:58:58;99597.81;;;22.47;56.53
52745;BME280;38637;49.984;20.426;2022-07-29T08:01:23;99596.16;;;22.46;56.32
52745;BME280;38637;49.984;20.426;2022-07-29T08:03:51;99598.47;;;22.44;56.67
52745;BME280;38637;49.984;20.426;2022-07-29T08:06:16;99595.31;;;22.55;56.19
52745;BME280;38637;49.984;20.426;2022-07-29T08:08:41;99595.56;;;22.62;56.19
52745;BME280;38637;49.984;20.426;2022-07-29T08:11:07;99591.31;;;22.64;55.96
52745;BME280;38637;49.984;20.426;2022-07-29T08:13:32;99594.09;;;22.64;56.61
52745;BME280;38637;49.984;20.426;2022-07-29T08:15:58;99592.28;;;22.68;55.54
52745;BME280;38637;49.984;20.426;2022-07-29T08:18:28;99588.16;;;22.75;56.11
52745;BME280;38637;49.984;20.426;2022-07-29T08:20:54;99563.81;;;22.63;56.74
52745;BME280;38637;49.984;20.426;2022-07-29T08:23:19;99570.22;;;22.84;57.10
52745;BME280;38637;49.984;20.426;2022-07-29T08:25:45;99576.72;;;22.97;55.85
52745;BME280;38637;49.984;20.426;2022-07-29T08:28:10;99579.88;;;23.08;56.11
52745;BME280;38637;49.984;20.426;2022-07-29T08:30:35;99583.09;;;23.19;55.37
52745;BME280;38637;49.984;20.426;2022-07-29T08:33:01;99583.47;;;23.29;55.67
52745;BME280;38637;49.984;20.426;2022-07-29T08:35:26;99574.72;;;23.39;55.57
52745;BME280;38637;49.984;20.426;2022-07-29T08:37:51;99579.03;;;23.49;55.35
52745;BME280;38637;49.984;20.426;2022-07-29T08:40:17;99575.00;;;23.59;55.56
52745;BME280;38637;49.984;20.426;2022-07-29T08:42:42;99582.56;;;23.58;53.74
52745;BME280;38637;49.984;20.426;2022-07-29T08:45:08;99581.94;;;23.53;54.53
52745;BME280;38637;49.984;20.426;2022-07-29T08:47:33;99578.16;;;23.57;54.19
52745;BME280;38637;49.984;20.426;2022-07-29T08:50:01;99575.97;;;23.63;55.42
52745;BME280;38637;49.984;20.426;2022-07-29T08:52:26;99577.91;;;23.62;54.25
52745;BME280;38637;49.984;20.426;2022-07-29T08:54:52;99574.78;;;23.64;53.67
52745;BME280;38637;49.984;20.426;2022-07-29T08:57:18;99577.47;;;23.60;53.45
52745;BME280;38637;49.984;20.426;2022-07-29T08:59:44;99585.25;;;23.67;54.33
52745;BME280;38637;49.984;20.426;2022-07-29T09:02:12;99570.44;;;23.75;54.57
52745;BME280;38637;49.984;20.426;2022-07-29T09:04:42;99576.50;;;23.90;54.56
52745;BME280;38637;49.984;20.426;2022-07-29T09:07:08;99583.59;;;23.99;54.21
52745;BME280;38637;49.984;20.426;2022-07-29T09:09:33;99577.22;;;24.11;54.22
52745;BME280;38637;49.984;20.426;2022-07-29T09:11:59;99575.84;;;24.17;52.67
52745;BME280;38637;49.984;20.426;2022-07-29T09:14:24;99577.34;;;24.15;53.28
52745;BME280;38637;49.984;20.426;2022-07-29T09:16:54;99570.38;;;24.21;53.30
52745;BME280;38637;49.984;20.426;2022-07-29T09:19:20;99581.19;;;24.22;51.47
52745;BME280;38637;49.984;20.426;2022-07-29T09:21:45;99577.13;;;24.20;52.80
52745;BME280;38637;49.984;20.426;2022-07-29T09:24:24;99567.03;;;24.27;53.21
52745;BME280;38637;49.984;20.426;2022-07-29T09:26:49;99554.22;;;24.26;51.92
52745;BME280;38637;49.984;20.426;2022-07-29T09:29:15;99558.88;;;24.35;52.71
52745;BME280;38637;49.984;20.426;2022-07-29T09:31:42;99558.28;;;24.41;52.32
52745;BME280;38637;49.984;20.426;2022-07-29T09:34:08;99552.59;;;24.38;52.26
52745;BME280;38637;49.984;20.426;2022-07-29T09:36:40;99554.34;;;24.42;52.08
52745;BME280;38637;49.984;20.426;2022-07-29T09:39:07;99553.31;;;24.47;52.24
52745;BME280;38637;49.984;20.426;2022-07-29T09:41:48;99554.34;;;24.54;52.94
52745;BME280;38637;49.984;20.426;2022-07-29T09:44:14;99553.53;;;24.54;51.43
52745;BME280;38637;49.984;20.426;2022-07-29T09:46:40;99550.75;;;24.54;52.39
52745;BME280;38637;49.984;20.426;2022-07-29T09:49:11;99543.75;;;24.60;52.15
52745;BME280;38637;49.984;20.426;2022-07-29T09:51:37;99536.78;;;24.54;52.02
52745;BME280;38637;49.984;20.426;2022-07-29T09:54:24;99535.84;;;24.62;52.36
52745;BME280;38637;49.984;20.426;2022-07-29T09:56:48;99542.69;;;24.77;52.03
52745;BME280;38637;49.984;20.426;2022-07-29T09:59:13;99546.53;;;24.72;51.29
52745;BME280;38637;49.984;20.426;2022-07-29T10:01:39;99521.03;;;24.74;51.01
52745;BME280;38637;49.984;20.426;2022-07-29T10:04:04;99526.84;;;24.81;50.69
52745;BME280;38637;49.984;20.426;2022-07-29T10:06:30;99524.81;;;24.94;51.72
52745;BME280;38637;49.984;20.426;2022-07-29T10:09:01;99521.16;;;25.06;51.93
52745;BME280;38637;49.984;20.426;2022-07-29T10:11:31;99528.13;;;25.24;51.42
52745;BME280;38637;49.984;20.426;2022-07-29T10:13:56;99530.03;;;25.36;51.42
52745;BME280;38637;49.984;20.426;2022-07-29T10:16:21;99519.84;;;25.43;50.88
52745;BME280;38637;49.984;20.426;2022-07-29T10:18:47;99521.34;;;25.53;50.57
52745;BME280;38637;49.984;20.426;2022-07-29T10:21:12;99524.06;;;25.65;49.78
52745;BME280;38637;49.984;20.426;2022-07-29T10:23:37;99519.81;;;25.72;50.35
52745;BME280;38637;49.984;20.426;2022-07-29T10:26:03;99516.97;;;25.84;49.94
52745;BME280;38637;49.984;20.426;2022-07-29T10:28:29;99517.50;;;25.89;50.15
52745;BME280;38637;49.984;20.426;2022-07-29T10:30:58;99521.22;;;25.94;48.73
52745;BME280;38637;49.984;20.426;2022-07-29T10:33:36;99521.31;;;25.97;49.42
52745;BME280;38637;49.984;20.426;2022-07-29T10:36:17;99504.69;;;26.04;49.13
52745;BME280;38637;49.984;20.426;2022-07-29T10:38:51;99506.47;;;26.12;48.73
52745;BME280;38637;49.984;20.426;2022-07-29T10:43:54;99510.72;;;26.22;48.42
52745;BME280;38637;49.984;20.426;2022-07-29T10:46:21;99503.66;;;26.28;48.40
52745;BME280;38637;49.984;20.426;2022-07-29T10:52:13;99499.09;;;26.20;47.34
52745;BME280;38637;49.984;20.426;2022-07-29T10:54:55;99499.69;;;26.29;48.06
52745;BME280;38637;49.984;20.426;2022-07-29T10:59:47;99492.16;;;26.49;47.92
52745;BME280;38637;49.984;20.426;2022-07-29T11:07:21;99479.97;;;26.57;47.38
52745;BME280;38637;49.984;20.426;2022-07-29T11:15:05;99481.72;;;26.66;47.75
52745;BME280;38637;49.984;20.426;2022-07-29T11:23:00;99481.22;;;26.60;47.32
52745;BME280;38637;49.984;20.426;2022-07-29T11:25:25;99481.22;;;26.60;46.89
52745;BME280;38637;49.984;20.426;2022-07-29T11:27:51;99473.63;;;26.61;47.90
52745;BME280;38637;49.984;20.426;2022-07-29T11:30:17;99472.91;;;26.64;48.00
52745;BME280;38637;49.984;20.426;2022-07-29T11:32:43;99469.44;;;26.70;48.23
52745;BME280;38637;49.984;20.426;2022-07-29T11:35:16;99467.88;;;26.73;47.31
52745;BME280;38637;49.984;20.426;2022-07-29T11:37:42;99475.56;;;26.76;46.96
52745;BME280;38637;49.984;20.426;2022-07-29T11:40:08;99470.47;;;26.81;46.83
52745;BME280;38637;49.984;20.426;2022-07-29T11:45:03;99467.66;;;27.01;48.10
52745;BME280;38637;49.984;20.426;2022-07-29T11:47:34;99460.28;;;27.12;46.36
52745;BME280;38637;49.984;20.426;2022-07-29T11:50:01;99455.84;;;27.31;46.90
52745;BME280;38637;49.984;20.426;2022-07-29T11:52:34;99460.22;;;27.51;45.76
52745;BME280;38637;49.984;20.426;2022-07-29T11:55:02;99467.25;;;27.41;44.47
52745;BME280;38637;49.984;20.426;2022-07-29T11:57:28;99467.69;;;27.43;44.83
52745;BME280;38637;49.984;20.426;2022-07-29T11:59:53;99450.38;;;27.38;44.45
52745;BME280;38637;49.984;20.426;2022-07-29T12:02:20;99455.00;;;27.49;45.73
52745;BME280;38637;49.984;20.426;2022-07-29T12:04:51;99453.66;;;27.66;45.47
52745;BME280;38637;49.984;20.426;2022-07-29T12:07:17;99454.97;;;27.72;43.14
52745;BME280;38637;49.984;20.426;2022-07-29T12:09:52;99444.13;;;27.71;44.17
52745;BME280;38637;49.984;20.426;2022-07-29T12:12:17;99443.47;;;27.78;45.04
52745;BME280;38637;49.984;20.426;2022-07-29T12:14:42;99436.06;;;27.69;44.37
52745;BME280;38637;49.984;20.426;2022-07-29T12:17:24;99436.72;;;27.59;44.58
52745;BME280;38637;49.984;20.426;2022-07-29T12:19:50;99425.38;;;27.52;44.48
52745;BME280;38637;49.984;20.426;2022-07-29T12:22:23;99430.16;;;27.52;44.39
52745;BME280;38637;49.984;20.426;2022-07-29T12:24:49;99435.59;;;27.41;44.25
52745;BME280;38637;49.984;20.426;2022-07-29T12:27:16;99433.53;;;27.38;45.21
52745;BME280;38637;49.984;20.426;2022-07-29T12:29:42;99426.09;;;27.26;44.67
52745;BME280;38637;49.984;20.426;2022-07-29T12:32:07;99428.78;;;27.19;45.06
52745;BME280;38637;49.984;20.426;2022-07-29T12:34:32;99419.25;;;27.23;45.52
52745;BME280;38637;49.984;20.426;2022-07-29T12:36:58;99415.28;;;27.24;44.64
52745;BME280;38637;49.984;20.426;2022-07-29T12:39:23;99413.28;;;27.25;45.18
52745;BME280;38637;49.984;20.426;2022-07-29T12:41:51;99415.28;;;27.24;44.88
52745;BME280;38637;49.984;20.426;2022-07-29T12:44:16;99422.50;;;27.25;45.20
52745;BME280;38637;49.984;20.426;2022-07-29T12:46:41;99412.09;;;27.26;45.67
52745;BME280;38637;49.984;20.426;2022-07-29T12:49:07;99409.34;;;27.30;45.46
52745;BME280;38637;49.984;20.426;2022-07-29T12:51:36;99403.38;;;27.31;45.30
52745;BME280;38637;49.984;20.426;2022-07-29T12:56:30;99395.31;;;27.30;45.40
52745;BME280;38637;49.984;20.426;2022-07-29T12:58:55;99396.56;;;27.32;45.84
52745;BME280;38637;49.984;20.426;2022-07-29T13:01:20;99386.16;;;27.33;46.13
52745;BME280;38637;49.984;20.426;2022-07-29T13:06:31;99383.34;;;27.33;45.99
52745;BME280;38637;49.984;20.426;2022-07-29T13:09:03;99381.44;;;27.37;45.95
52745;BME280;38637;49.984;20.426;2022-07-29T13:14:07;99372.50;;;27.54;45.89
52745;BME280;38637;49.984;20.426;2022-07-29T13:16:33;99371.38;;;27.59;45.79
52745;BME280;38637;49.984;20.426;2022-07-29T13:19:05;99368.94;;;27.57;45.59
52745;BME280;38637;49.984;20.426;2022-07-29T13:21:31;99367.84;;;27.62;45.69
52745;BME280;38637;49.984;20.426;2022-07-29T13:23:56;99364.13;;;27.58;45.10
52745;BME280;38637;49.984;20.426;2022-07-29T13:26:21;99360.97;;;27.59;45.51
52745;BME280;38637;49.984;20.426;2022-07-29T13:28:46;99366.13;;;27.57;45.94
52745;BME280;38637;49.984;20.426;2022-07-29T13:31:11;99346.44;;;27.54;45.06
52745;BME280;38637;49.984;20.426;2022-07-29T13:33:37;99349.50;;;27.45;45.27
52745;BME280;38637;49.984;20.426;2022-07-29T13:36:02;99345.41;;;27.39;45.23
52745;BME280;38637;49.984;20.426;2022-07-29T13:38:27;99344.16;;;27.36;45.41
52745;BME280;38637;49.984;20.426;2022-07-29T13:40:52;99336.19;;;27.38;45.83